createdAt,value
2018-06-15T00:00:22.478Z,9.73
2018-06-15T00:02:56.307Z,8.83
2018-06-15T00:05:24.818Z,9.50
2018-06-15T00:07:53.640Z,9.50
2018-06-15T00:10:22.098Z,11.10
2018-06-15T00:12:50.578Z,9.20
2018-06-15T00:15:19.023Z,8.77
2018-06-15T00:17:47.509Z,9.10
2018-06-15T00:20:15.953Z,9.30
2018-06-15T00:22:44.857Z,8.73
2018-06-15T00:25:13.403Z,8.27
2018-06-15T00:27:41.894Z,10.07
2018-06-15T00:30:10.434Z,10.10
2018-06-15T00:32:38.949Z,9.07
2018-06-15T00:35:07.490Z,10.30
2018-06-15T00:37:35.943Z,9.27
2018-06-15T00:40:04.519Z,9.00
2018-06-15T00:42:32.630Z,9.70
2018-06-15T00:45:01.135Z,9.50
2018-06-15T00:47:29.611Z,9.23
2018-06-15T00:49:58.183Z,10.53
2018-06-15T00:52:26.656Z,9.60
2018-06-15T00:54:55.174Z,10.70
2018-06-15T00:57:35.007Z,10.27
2018-06-15T01:00:04.365Z,9.43
2018-06-15T01:02:32.838Z,8.87
2018-06-15T01:05:01.322Z,8.70
2018-06-15T01:07:29.929Z,9.80
2018-06-15T01:09:58.395Z,9.73
2018-06-15T01:12:26.834Z,9.40
2018-06-15T01:14:55.341Z,9.80
2018-06-15T01:17:23.509Z,9.37
2018-06-15T01:19:52.009Z,9.50
2018-06-15T01:22:20.468Z,10.03
2018-06-15T01:24:48.605Z,9.90
2018-06-15T01:27:17.133Z,9.77
2018-06-15T01:29:45.703Z,9.80
2018-06-15T01:32:14.228Z,7.90
2018-06-15T01:34:42.680Z,8.70
2018-06-15T01:37:11.394Z,9.13
2018-06-15T01:39:40.838Z,7.87
2018-06-15T01:42:09.474Z,8.60
2018-06-15T01:44:37.913Z,9.33
2018-06-15T01:47:06.454Z,9.47
2018-06-15T01:49:34.956Z,9.13
2018-06-15T01:52:03.447Z,8.73
2018-06-15T01:54:31.891Z,9.40
2018-06-15T01:57:00.385Z,9.67
2018-06-15T01:59:28.851Z,8.43
2018-06-15T02:01:57.334Z,10.57
2018-06-15T02:04:25.807Z,8.20
2018-06-15T02:06:54.246Z,9.33
2018-06-15T02:09:22.755Z,8.97
2018-06-15T02:11:51.255Z,9.27
2018-06-15T02:14:19.770Z,8.93
2018-06-15T02:16:48.237Z,9.57
2018-06-15T02:19:17.614Z,10.10
2018-06-15T02:21:46.099Z,10.17
2018-06-15T02:24:14.622Z,10.20
2018-06-15T02:26:43.092Z,11.07
2018-06-15T02:29:11.593Z,10.10
2018-06-15T02:31:40.093Z,9.70
2018-06-15T02:34:08.579Z,11.60
2018-06-15T02:36:37.046Z,9.80
2018-06-15T02:39:08.287Z,10.70
2018-06-15T02:41:36.862Z,11.27
2018-06-15T02:44:05.401Z,10.20
2018-06-15T02:46:33.862Z,10.77
2018-06-15T02:49:02.371Z,10.97
2018-06-15T02:51:30.885Z,12.37
2018-06-15T02:53:59.399Z,10.57
2018-06-15T02:56:27.902Z,10.70
2018-06-15T02:58:56.417Z,11.50
2018-06-15T03:01:24.953Z,11.00
2018-06-15T03:03:53.647Z,12.73
2018-06-15T03:06:22.362Z,9.97
2018-06-15T03:08:50.985Z,11.53
2018-06-15T03:11:20.499Z,11.63
2018-06-15T03:13:48.962Z,11.53
2018-06-15T03:16:17.486Z,12.70
2018-06-15T03:18:46.640Z,11.43
2018-06-15T03:21:15.173Z,12.60
2018-06-15T03:23:43.730Z,10.97
2018-06-15T03:26:12.234Z,10.70
2018-06-15T03:28:40.899Z,11.53
2018-06-15T03:31:09.530Z,12.00
2018-06-15T03:33:38.006Z,11.90
2018-06-15T03:36:06.536Z,12.40
2018-06-15T03:38:35.056Z,11.70
2018-06-15T03:41:03.763Z,11.90
2018-06-15T03:43:32.290Z,11.53
2018-06-15T03:46:00.786Z,12.67
2018-06-15T03:48:29.250Z,13.67
2018-06-15T03:50:57.764Z,12.63
2018-06-15T03:53:26.238Z,12.70
2018-06-15T03:55:54.707Z,12.80
2018-06-15T03:58:23.182Z,13.40
2018-06-15T04:00:51.734Z,14.13
2018-06-15T04:03:20.186Z,13.70
2018-06-15T04:05:48.696Z,12.80
2018-06-15T04:08:17.161Z,13.53
2018-06-15T04:10:45.669Z,11.67
2018-06-15T04:13:14.387Z,13.07
2018-06-15T04:15:42.846Z,12.83
2018-06-15T04:18:11.507Z,14.13
2018-06-15T04:20:40.352Z,13.00
2018-06-15T04:23:08.818Z,15.83
2018-06-15T04:25:37.260Z,13.87
2018-06-15T04:28:05.798Z,13.17
2018-06-15T04:30:34.394Z,13.73
2018-06-15T04:33:02.909Z,12.87
2018-06-15T04:35:31.390Z,12.77
2018-06-15T04:37:59.910Z,13.80
2018-06-15T04:40:28.409Z,13.63
2018-06-15T04:42:57.619Z,14.47
2018-06-15T04:45:26.147Z,13.43
2018-06-15T04:47:54.606Z,14.73
2018-06-15T04:50:23.131Z,12.20
2018-06-15T04:52:51.602Z,14.50
2018-06-15T04:55:19.775Z,15.40
2018-06-15T04:57:48.280Z,13.53
2018-06-15T05:00:16.794Z,13.30
2018-06-15T05:02:45.273Z,14.80
2018-06-15T05:05:13.801Z,13.93
2018-06-15T05:07:42.318Z,14.23
2018-06-15T05:10:10.778Z,14.90
2018-06-15T05:12:39.261Z,16.40
2018-06-15T05:15:07.731Z,15.40
2018-06-15T05:17:36.268Z,16.03
2018-06-15T05:20:05.414Z,13.80
2018-06-15T05:22:34.438Z,15.47
2018-06-15T05:25:02.969Z,15.17
2018-06-15T05:27:31.498Z,14.57
2018-06-15T05:30:00.050Z,15.80
2018-06-15T05:32:28.675Z,15.00
2018-06-15T05:34:57.144Z,14.47
2018-06-15T05:37:25.770Z,12.80
2018-06-15T05:39:54.255Z,12.97
2018-06-15T05:42:22.772Z,14.73
2018-06-15T05:44:51.243Z,13.27
2018-06-15T05:47:19.751Z,14.50
2018-06-15T05:49:48.295Z,15.30
2018-06-15T05:52:16.820Z,15.10
2018-06-15T05:54:45.419Z,15.50
2018-06-15T05:57:14.058Z,14.80
2018-06-15T05:59:42.538Z,15.67
2018-06-15T06:02:11.071Z,15.00
2018-06-15T06:04:39.530Z,14.20
2018-06-15T06:07:08.151Z,15.47
2018-06-15T06:09:36.616Z,13.73
2018-06-15T06:12:05.127Z,13.17
2018-06-15T06:14:33.579Z,12.97
2018-06-15T06:17:02.095Z,13.20
2018-06-15T06:19:30.561Z,13.73
2018-06-15T06:21:59.069Z,13.77
2018-06-15T06:24:27.523Z,12.50
2018-06-15T06:26:56.050Z,15.50
2018-06-15T06:29:24.514Z,13.67
2018-06-15T06:31:53.017Z,14.13
2018-06-15T06:34:21.577Z,14.00
2018-06-15T06:36:50.062Z,11.80
2018-06-15T06:39:18.538Z,12.00
2018-06-15T06:41:47.039Z,11.47
2018-06-15T06:44:15.542Z,11.97
2018-06-15T06:46:44.063Z,11.60
2018-06-15T06:49:12.578Z,11.13
2018-06-15T06:51:41.102Z,11.13
2018-06-15T06:54:09.571Z,13.20
2018-06-15T06:56:38.087Z,13.20
2018-06-15T06:59:06.572Z,10.90
2018-06-15T07:01:35.101Z,12.73
2018-06-15T07:04:03.638Z,13.20
2018-06-15T07:06:32.295Z,11.40
2018-06-15T07:09:00.798Z,10.50
2018-06-15T07:11:29.303Z,12.20
2018-06-15T07:13:57.782Z,10.73
2018-06-15T07:16:26.616Z,10.63
2018-06-15T07:18:55.144Z,10.30
2018-06-15T07:21:23.614Z,12.30
2018-06-15T07:23:52.072Z,13.80
2018-06-15T07:26:20.586Z,11.67
2018-06-15T07:28:49.066Z,12.00
2018-06-15T07:31:17.611Z,12.97
2018-06-15T07:33:46.082Z,13.93
2018-06-15T07:36:14.609Z,11.80
2018-06-15T07:38:43.115Z,12.80
2018-06-15T07:41:11.696Z,12.33
2018-06-15T07:43:40.314Z,9.90
2018-06-15T07:46:08.954Z,12.43
2018-06-15T07:48:37.443Z,11.40
2018-06-15T07:51:05.954Z,11.73
2018-06-15T07:53:34.583Z,10.80
2018-06-15T07:56:03.120Z,10.97
2018-06-15T07:58:31.690Z,12.07
2018-06-15T08:01:00.301Z,11.17
2018-06-15T08:03:28.832Z,11.07
2018-06-15T08:05:57.345Z,11.20
2018-06-15T08:08:26.962Z,13.20
2018-06-15T08:10:55.548Z,11.30
2018-06-15T08:13:27.959Z,10.97
2018-06-15T08:15:57.222Z,11.83
2018-06-15T08:18:25.701Z,11.93
2018-06-15T08:20:54.167Z,12.10
2018-06-15T08:23:23.451Z,11.40
2018-06-15T08:25:51.934Z,8.97
2018-06-15T08:28:20.487Z,11.23
2018-06-15T08:30:49.104Z,11.20
2018-06-15T08:33:17.312Z,9.93
2018-06-15T08:35:45.896Z,10.13
2018-06-15T08:38:14.644Z,9.73
2018-06-15T08:40:47.426Z,9.23
2018-06-15T08:43:15.945Z,10.07
2018-06-15T08:45:44.598Z,9.43
2018-06-15T08:48:13.280Z,8.40
2018-06-15T08:50:41.763Z,10.67
2018-06-15T08:53:10.283Z,9.13
2018-06-15T08:55:38.864Z,9.37
2018-06-15T08:58:07.475Z,9.13
2018-06-15T09:00:35.967Z,9.23
2018-06-15T09:03:04.507Z,9.27
2018-06-15T09:05:33.002Z,10.43
2018-06-15T09:08:01.623Z,9.80
2018-06-15T09:10:30.079Z,10.60
2018-06-15T09:12:58.597Z,9.73
2018-06-15T09:15:27.055Z,11.00
2018-06-15T09:17:55.578Z,8.57
2018-06-15T09:20:24.097Z,9.90
2018-06-15T09:22:52.565Z,9.50
2018-06-15T09:25:21.108Z,9.97
2018-06-15T09:27:49.592Z,10.60
2018-06-15T09:30:18.085Z,9.67
2018-06-15T09:32:46.604Z,9.57
2018-06-15T09:35:15.172Z,9.20
2018-06-15T09:37:43.692Z,8.43
2018-06-15T09:40:12.272Z,9.87
2018-06-15T09:42:40.771Z,7.83
2018-06-15T09:45:09.318Z,7.90
2018-06-15T09:47:37.806Z,9.93
2018-06-15T09:50:06.338Z,10.60
2018-06-15T09:52:34.844Z,7.33
2018-06-15T09:55:03.362Z,7.90
2018-06-15T09:57:31.912Z,8.10
2018-06-15T10:00:00.422Z,8.80
2018-06-15T10:02:28.928Z,8.97
2018-06-15T10:04:57.487Z,10.60
2018-06-15T10:07:25.982Z,9.10
2018-06-15T10:09:54.524Z,10.83
2018-06-15T10:12:23.051Z,10.07
2018-06-15T10:14:51.571Z,11.07
2018-06-15T10:17:20.106Z,10.57
2018-06-15T10:19:48.579Z,10.40
2018-06-15T10:22:17.099Z,11.40
2018-06-15T10:24:45.573Z,12.53
2018-06-15T10:27:14.125Z,10.53
2018-06-15T10:29:42.683Z,10.40
2018-06-15T10:32:11.254Z,11.00
2018-06-15T10:34:39.735Z,10.50
2018-06-15T10:37:08.261Z,8.93
2018-06-15T10:39:36.858Z,7.83
2018-06-15T10:42:05.334Z,7.60
2018-06-15T10:44:33.805Z,8.20
2018-06-15T10:47:02.307Z,8.63
2018-06-15T10:49:30.783Z,8.47
2018-06-15T10:51:59.327Z,9.53
2018-06-15T10:54:27.810Z,8.63
2018-06-15T10:56:56.374Z,8.40
2018-06-15T10:59:24.911Z,8.50
2018-06-15T11:01:53.503Z,7.77
2018-06-15T11:04:21.995Z,7.37
2018-06-15T11:06:50.616Z,7.53
2018-06-15T11:09:19.102Z,6.50
2018-06-15T11:11:47.607Z,6.70
2018-06-15T11:14:16.116Z,5.90
2018-06-15T11:16:45.484Z,4.90
2018-06-15T11:19:14.129Z,6.70
2018-06-15T11:21:42.597Z,5.97
2018-06-15T11:24:11.171Z,6.00
2018-06-15T11:26:39.663Z,4.70
2018-06-15T11:29:08.199Z,5.43
2018-06-15T11:31:36.733Z,5.50
2018-06-15T11:34:05.249Z,5.13
2018-06-15T11:36:33.731Z,5.33
2018-06-15T11:39:02.293Z,7.33
2018-06-15T11:41:30.890Z,7.30
2018-06-15T11:43:59.450Z,8.60
2018-06-15T11:46:27.933Z,9.07
2018-06-15T11:48:56.477Z,10.20
2018-06-15T11:51:24.979Z,9.00
2018-06-15T11:53:53.451Z,7.97
2018-06-15T11:56:21.974Z,6.60
2018-06-15T11:58:50.456Z,7.53
2018-06-15T12:01:18.988Z,5.97
2018-06-15T12:03:47.470Z,8.27
2018-06-15T12:06:16.176Z,6.67
2018-06-15T12:08:44.757Z,7.30
2018-06-15T12:11:13.404Z,8.63
2018-06-15T12:13:42.442Z,7.70
2018-06-15T12:16:11.050Z,7.20
2018-06-15T12:18:39.572Z,8.70
2018-06-15T12:21:08.209Z,8.03
2018-06-15T12:23:36.713Z,8.53
2018-06-15T12:26:05.425Z,7.67
2018-06-15T12:28:33.908Z,8.30
2018-06-15T12:31:02.407Z,6.30
2018-06-15T12:33:31.014Z,7.37
2018-06-15T12:35:59.550Z,7.13
2018-06-15T12:38:28.312Z,7.83
2018-06-15T12:40:56.984Z,7.20
2018-06-15T12:43:25.513Z,7.10
2018-06-15T12:45:54.073Z,9.03
2018-06-15T12:48:22.641Z,8.27
2018-06-15T12:50:51.287Z,8.90
2018-06-15T12:53:21.057Z,8.07
2018-06-15T12:55:49.810Z,7.27
2018-06-15T12:58:18.361Z,8.37
2018-06-15T13:00:46.851Z,7.20
2018-06-15T13:03:15.384Z,7.30
2018-06-15T13:05:43.905Z,7.00
2018-06-15T13:08:12.549Z,7.93
2018-06-15T13:10:41.097Z,7.30
2018-06-15T13:13:09.615Z,7.20
2018-06-15T13:15:38.255Z,7.40
2018-06-15T13:18:06.777Z,7.30
2018-06-15T13:20:35.303Z,7.67
2018-06-15T13:23:04.615Z,6.93
2018-06-15T13:25:33.166Z,6.90
2018-06-15T13:28:01.765Z,8.03
2018-06-15T13:30:30.327Z,7.07
2018-06-15T13:32:58.979Z,7.77
2018-06-15T13:35:27.565Z,6.90
2018-06-15T13:37:56.933Z,6.60
2018-06-15T13:40:26.212Z,5.70
2018-06-15T13:42:54.693Z,6.10
2018-06-15T13:45:23.240Z,6.73
2018-06-15T13:47:51.749Z,6.30
2018-06-15T13:50:20.485Z,6.63
2018-06-15T13:52:48.964Z,6.77
2018-06-15T13:55:17.560Z,6.00
2018-06-15T13:57:46.119Z,5.57
2018-06-15T14:00:14.848Z,6.37
2018-06-15T14:02:43.476Z,5.40
2018-06-15T14:05:11.964Z,6.63
2018-06-15T14:07:40.628Z,7.23
2018-06-15T14:10:09.144Z,6.43
2018-06-15T14:12:37.690Z,6.53
2018-06-15T14:15:06.278Z,6.67
2018-06-15T14:17:34.947Z,7.37
2018-06-15T14:20:07.407Z,7.50
2018-06-15T14:22:38.472Z,7.20
2018-06-15T14:25:07.586Z,5.93
2018-06-15T14:27:36.754Z,6.70
2018-06-15T14:30:05.070Z,6.00
2018-06-15T14:32:34.392Z,6.87
2018-06-15T14:35:03.205Z,6.50
2018-06-15T14:37:32.128Z,5.50
2018-06-15T14:40:01.468Z,6.70
2018-06-15T14:42:30.001Z,5.67
2018-06-15T14:44:58.746Z,7.30
2018-06-15T14:47:27.330Z,5.97
2018-06-15T14:49:55.932Z,5.80
2018-06-15T14:52:24.519Z,5.67
2018-06-15T14:54:53.026Z,6.70
2018-06-15T14:57:21.607Z,6.20
2018-06-15T14:59:50.844Z,5.57
2018-06-15T15:02:19.030Z,5.57
2018-06-15T15:04:48.761Z,6.70
2018-06-15T15:07:18.017Z,5.90
2018-06-15T15:09:46.621Z,6.00
2018-06-15T15:12:16.060Z,5.30
2018-06-15T15:14:47.523Z,6.60
2018-06-15T15:17:18.055Z,6.20
2018-06-15T15:19:50.038Z,5.90
2018-06-15T15:25:00.443Z,6.33
2018-06-15T15:27:29.580Z,7.00
2018-06-15T15:29:58.144Z,6.87
2018-06-15T15:32:26.805Z,7.37
2018-06-15T15:34:55.424Z,6.80
2018-06-15T15:37:24.010Z,7.33
2018-06-15T15:39:52.634Z,6.40
2018-06-15T15:42:22.050Z,7.20
2018-06-15T15:44:50.538Z,7.70
2018-06-15T15:47:18.725Z,7.60
2018-06-15T15:49:48.435Z,7.30
2018-06-15T15:52:16.991Z,7.40
2018-06-15T15:54:45.657Z,7.67
2018-06-15T15:57:14.288Z,7.37
2018-06-15T15:59:42.869Z,7.33
2018-06-15T16:02:11.416Z,7.60
2018-06-15T16:04:40.675Z,6.90
2018-06-15T16:07:09.342Z,7.70
2018-06-15T16:09:37.827Z,7.73
2018-06-15T16:12:06.557Z,7.13
2018-06-15T16:14:35.052Z,7.10
2018-06-15T16:17:03.550Z,6.97
2018-06-15T16:19:32.194Z,7.13
2018-06-15T16:22:00.782Z,6.10
2018-06-15T16:24:30.091Z,6.67
2018-06-15T16:26:58.769Z,6.93
2018-06-15T16:29:27.603Z,5.97
2018-06-15T16:31:56.102Z,5.87
2018-06-15T16:34:24.739Z,6.10
2018-06-15T16:36:53.449Z,6.93
2018-06-15T16:39:22.003Z,6.70
2018-06-15T16:41:50.554Z,6.50
2018-06-15T16:44:19.163Z,6.77
2018-06-15T16:46:48.819Z,7.03
2018-06-15T16:49:17.470Z,6.30
2018-06-15T16:51:47.645Z,7.83
2018-06-15T16:54:17.185Z,7.77
2018-06-15T16:56:45.788Z,6.67
2018-06-15T16:59:14.382Z,6.77
2018-06-15T17:01:43.075Z,7.27
2018-06-15T17:04:11.621Z,6.70
2018-06-15T17:06:40.198Z,7.07
2018-06-15T17:09:10.223Z,7.13
2018-06-15T17:11:38.744Z,7.33
2018-06-15T17:14:07.298Z,7.60
2018-06-15T17:16:35.979Z,6.30
2018-06-15T17:19:04.528Z,7.60
2018-06-15T17:21:33.073Z,6.47
2018-06-15T17:24:01.647Z,8.00
2018-06-15T17:26:30.163Z,8.10
2018-06-15T17:28:58.869Z,8.83
2018-06-15T17:31:27.505Z,7.63
2018-06-15T17:33:56.320Z,7.93
2018-06-15T17:36:24.819Z,8.20
2018-06-15T17:38:53.320Z,8.07
2018-06-15T17:41:21.833Z,7.50
2018-06-15T17:43:50.380Z,8.43
2018-06-15T17:46:18.913Z,7.80
2018-06-15T17:48:47.429Z,7.57
2018-06-15T17:51:16.190Z,7.50
2018-06-15T17:53:44.814Z,7.77
2018-06-15T17:56:13.325Z,7.90
2018-06-15T17:58:41.828Z,7.20
2018-06-15T18:01:10.385Z,6.90
2018-06-15T18:03:38.992Z,7.27
2018-06-15T18:06:07.562Z,7.40
2018-06-15T18:08:37.026Z,7.93
2018-06-15T18:11:05.656Z,7.53
2018-06-15T18:13:34.288Z,8.00
2018-06-15T18:16:02.779Z,8.63
2018-06-15T18:18:31.421Z,7.70
2018-06-15T18:21:00.142Z,8.33
2018-06-15T18:23:28.699Z,7.77
2018-06-15T18:25:57.823Z,8.03
2018-06-15T18:28:26.404Z,8.23
2018-06-15T18:30:54.993Z,7.00
2018-06-15T18:33:26.672Z,7.20
2018-06-15T18:35:55.525Z,7.97
2018-06-15T18:38:25.036Z,7.73
2018-06-15T18:40:54.494Z,8.20
2018-06-15T18:43:23.138Z,7.33
2018-06-15T18:45:51.695Z,11.33
2018-06-15T18:48:20.415Z,8.07
2018-06-15T18:50:48.991Z,8.50
2018-06-15T18:53:17.507Z,8.60
2018-06-15T18:55:46.025Z,7.67
2018-06-15T18:58:14.589Z,8.53
2018-06-15T19:00:43.146Z,8.77
2018-06-15T19:03:11.729Z,9.40
2018-06-15T19:05:40.352Z,9.10
2018-06-15T19:08:08.867Z,7.93
2018-06-15T19:10:37.450Z,8.43
2018-06-15T19:13:06.219Z,9.00
2018-06-15T19:15:34.844Z,8.23
2018-06-15T19:18:04.294Z,7.90
2018-06-15T19:20:32.799Z,9.13
2018-06-15T19:23:01.512Z,7.83
2018-06-15T19:25:31.292Z,6.87
2018-06-15T19:27:59.986Z,8.40
2018-06-15T19:30:28.546Z,7.30
2018-06-15T19:32:57.284Z,7.10
2018-06-15T19:35:25.889Z,7.77
2018-06-15T19:37:54.400Z,7.57
2018-06-15T19:40:22.898Z,7.97
2018-06-15T19:42:51.415Z,7.13
2018-06-15T19:45:21.141Z,8.17
2018-06-15T19:47:51.229Z,7.13
2018-06-15T19:50:19.823Z,6.87
2018-06-15T19:52:48.441Z,9.80
2018-06-15T19:55:20.656Z,10.23
2018-06-15T19:57:49.217Z,9.10
2018-06-15T20:00:17.734Z,9.40
2018-06-15T20:02:48.151Z,7.57
2018-06-15T20:05:16.767Z,8.57
2018-06-15T20:07:45.544Z,8.40
2018-06-15T20:10:14.820Z,8.80
2018-06-15T20:12:44.158Z,7.17
2018-06-15T20:15:12.707Z,8.40
2018-06-15T20:17:42.117Z,7.17
2018-06-15T20:20:10.805Z,9.03
2018-06-15T20:22:40.848Z,8.40
2018-06-15T20:25:09.433Z,7.90
2018-06-15T20:27:38.300Z,8.30
2018-06-15T20:30:07.186Z,7.70
2018-06-15T20:32:35.766Z,8.83
2018-06-15T20:35:04.412Z,12.90
2018-06-15T20:37:32.937Z,12.87
2018-06-15T20:40:02.623Z,11.07
2018-06-15T20:42:32.340Z,11.47
2018-06-15T20:45:00.872Z,8.50
2018-06-15T20:47:29.411Z,8.20
2018-06-15T20:49:58.019Z,8.20
2018-06-15T20:52:26.558Z,9.10
2018-06-15T20:54:55.102Z,8.97
2018-06-15T20:57:23.649Z,8.87
2018-06-15T20:59:52.324Z,8.43
2018-06-15T21:02:20.952Z,9.00
2018-06-15T21:04:50.369Z,8.90
2018-06-15T21:07:18.993Z,9.53
2018-06-15T21:09:47.670Z,10.57
2018-06-15T21:12:16.239Z,9.10
2018-06-15T21:14:44.863Z,10.33
2018-06-15T21:17:14.454Z,9.40
2018-06-15T21:19:42.989Z,10.50
2018-06-15T21:22:11.586Z,9.57
2018-06-15T21:24:41.160Z,8.70
2018-06-15T21:27:11.150Z,8.67
2018-06-15T21:29:39.802Z,10.50
2018-06-15T21:32:09.531Z,10.40
2018-06-15T21:34:37.996Z,12.10
2018-06-15T21:37:06.681Z,12.23
2018-06-15T21:39:35.230Z,9.97
2018-06-15T21:42:03.836Z,11.90
2018-06-15T21:44:32.080Z,10.93
2018-06-15T21:47:00.653Z,12.33
2018-06-15T21:49:29.162Z,12.60
2018-06-15T21:51:59.110Z,11.70
2018-06-15T21:54:28.204Z,12.27
2018-06-15T21:56:56.823Z,11.67
2018-06-15T21:59:25.327Z,11.10
2018-06-15T22:01:53.931Z,11.63
2018-06-15T22:04:22.684Z,11.00
2018-06-15T22:06:51.185Z,10.70
2018-06-15T22:09:19.739Z,10.90
2018-06-15T22:11:48.233Z,9.80
2018-06-15T22:14:17.508Z,9.87
2018-06-15T22:16:52.005Z,9.10
2018-06-15T22:19:22.567Z,9.87
2018-06-15T22:21:52.270Z,9.90
2018-06-15T22:24:21.561Z,9.17
2018-06-15T22:26:50.067Z,10.57
2018-06-15T22:29:18.759Z,10.77
2018-06-15T22:31:47.510Z,10.87
2018-06-15T22:34:20.860Z,11.20
2018-06-15T22:36:49.365Z,11.90
2018-06-15T22:39:18.994Z,10.43
2018-06-15T22:41:47.458Z,11.07
2018-06-15T22:44:17.009Z,9.20
2018-06-15T22:46:45.491Z,10.10
2018-06-15T22:49:14.024Z,9.33
2018-06-15T22:51:42.670Z,8.50
2018-06-15T22:54:11.247Z,9.00
2018-06-15T22:56:41.315Z,9.70
2018-06-15T22:59:09.811Z,9.03
2018-06-15T23:01:39.038Z,9.03
2018-06-15T23:04:07.819Z,9.57
2018-06-15T23:06:36.468Z,10.90
2018-06-15T23:09:07.426Z,10.43
2018-06-15T23:11:35.922Z,9.73
2018-06-15T23:14:04.610Z,9.70
2018-06-15T23:16:33.095Z,9.03
2018-06-15T23:19:01.587Z,9.10
2018-06-15T23:21:30.152Z,9.47
2018-06-15T23:23:58.641Z,9.07
2018-06-15T23:26:27.138Z,9.47
2018-06-15T23:28:55.683Z,9.37
2018-06-15T23:31:24.219Z,8.77
2018-06-15T23:33:52.670Z,10.10
2018-06-15T23:36:21.171Z,10.67
2018-06-15T23:38:49.606Z,9.33
2018-06-15T23:41:18.115Z,9.93
2018-06-15T23:43:46.593Z,9.37
2018-06-15T23:46:15.154Z,10.07
2018-06-15T23:48:43.636Z,9.50
2018-06-15T23:51:12.149Z,10.30
2018-06-15T23:53:40.690Z,10.37
2018-06-15T23:56:09.299Z,10.30
2018-06-15T23:58:37.818Z,10.80
